Time,TemperatureF,DewpointF,PressureIn,WindDirection,WindDirectionDegrees,WindSpeedMPH,WindSpeedGustMPH,Humidity,HourlyPrecipIn,Conditions,Clouds,dailyrainin,SoftwareType,DateUTC
2013-05-16 00:02:00,55.0,40.0,-100.00,North,355,0.0,2.0,58,-99.99,,,-99.99,,2013-05-16 05:02:00,
2013-05-16 00:12:00,55.0,40.0,-100.00,North,355,0.0,2.0,58,-99.99,,,-99.99,,2013-05-16 05:12:00,
2013-05-16 00:22:00,55.0,40.0,-100.00,North,355,0.0,2.0,58,-99.99,,,-99.99,,2013-05-16 05:22:00,
2013-05-16 00:42:00,56.0,42.0,-100.00,NW,305,2.0,4.0,58,-99.99,,,-99.99,,2013-05-16 05:42:00,
2013-05-16 00:52:00,56.0,42.0,-100.00,NW,305,2.0,4.0,58,-99.99,,,-99.99,,2013-05-16 05:52:00,
2013-05-16 01:01:00,56.0,42.0,-100.00,NW,305,2.0,4.0,58,-99.99,,,-99.99,,2013-05-16 06:01:00,
2013-05-16 01:12:00,56.0,42.0,-100.00,NW,305,2.0,4.0,58,-99.99,,,-99.99,,2013-05-16 06:12:00,
2013-05-16 01:22:00,56.0,42.0,-100.00,NW,305,2.0,4.0,58,-99.99,,,-99.99,,2013-05-16 06:22:00,
2013-05-16 01:24:00,55.0,41.0,-100.00,WNW,300,3.0,4.0,59,-99.99,,,-99.99,,2013-05-16 06:24:00,
2013-05-16 01:53:00,55.0,41.0,-100.00,WNW,300,3.0,4.0,59,-99.99,,,-99.99,,2013-05-16 06:53:00,
2013-05-16 02:02:00,55.0,41.0,-100.00,WNW,300,3.0,4.0,59,-99.99,,,-99.99,,2013-05-16 07:02:00,
2013-05-16 02:12:00,55.0,41.0,-100.00,WNW,300,3.0,4.0,59,-99.99,,,-99.99,,2013-05-16 07:12:00,
2013-05-16 02:23:00,54.0,41.0,-100.00,NW,310,2.0,4.0,62,-99.99,,,-99.99,,2013-05-16 07:23:00,
2013-05-16 02:44:00,54.0,41.0,-100.00,NW,310,2.0,4.0,62,-99.99,,,-99.99,,2013-05-16 07:44:00,
2013-05-16 02:54:00,54.0,41.0,-100.00,NW,310,2.0,4.0,62,-99.99,,,-99.99,,2013-05-16 07:54:00,
2013-05-16 03:03:00,54.0,41.0,-100.00,NW,310,2.0,4.0,62,-99.99,,,-99.99,,2013-05-16 08:03:00,
2013-05-16 03:13:00,54.0,41.0,-100.00,NW,310,2.0,4.0,62,-99.99,,,-99.99,,2013-05-16 08:13:00,
2013-05-16 03:23:00,56.0,42.0,-100.00,WNW,300,3.0,4.0,60,-99.99,,,-99.99,,2013-05-16 08:23:00,
2013-05-16 03:45:00,56.0,42.0,-100.00,WNW,300,3.0,4.0,60,-99.99,,,-99.99,,2013-05-16 08:45:00,
2013-05-16 03:55:00,56.0,42.0,-100.00,WNW,300,3.0,4.0,60,-99.99,,,-99.99,,2013-05-16 08:55:00,
2013-05-16 04:04:00,56.0,42.0,-100.00,WNW,300,3.0,4.0,60,-99.99,,,-99.99,,2013-05-16 09:04:00,
2013-05-16 04:14:00,56.0,42.0,-100.00,WNW,300,3.0,4.0,60,-99.99,,,-99.99,,2013-05-16 09:14:00,
2013-05-16 04:24:00,56.0,42.0,-100.00,NW,325,4.0,6.0,60,-99.99,,,-99.99,,2013-05-16 09:24:00,
2013-05-16 04:55:00,56.0,42.0,-100.00,NW,325,4.0,6.0,60,-99.99,,,-99.99,,2013-05-16 09:55:00,
2013-05-16 05:05:00,56.0,42.0,-100.00,NW,325,4.0,6.0,60,-99.99,,,-99.99,,2013-05-16 10:05:00,
2013-05-16 05:15:00,56.0,42.0,-100.00,NW,325,4.0,6.0,60,-99.99,,,-99.99,,2013-05-16 10:15:00,
2013-05-16 05:24:00,55.0,42.0,-100.00,NNW,335,3.0,7.0,61,-99.99,,,-99.99,,2013-05-16 10:24:00,
2013-05-16 05:45:00,55.0,42.0,-100.00,NNW,335,3.0,7.0,61,-99.99,,,-99.99,,2013-05-16 10:45:00,
2013-05-16 05:56:00,55.0,42.0,-100.00,NNW,335,3.0,7.0,61,-99.99,,,-99.99,,2013-05-16 10:56:00,
2013-05-16 06:05:00,55.0,42.0,-100.00,NNW,335,3.0,7.0,61,-99.99,,,-99.99,,2013-05-16 11:05:00,
2013-05-16 06:14:00,55.0,42.0,-100.00,NNW,335,3.0,7.0,61,-99.99,,,-99.99,,2013-05-16 11:14:00,
2013-05-16 06:46:00,60.0,44.0,-100.00,NNW,345,4.0,9.0,54,-99.99,,,-99.99,,2013-05-16 11:46:00,
2013-05-16 06:57:00,60.0,44.0,-100.00,NNW,345,4.0,9.0,54,-99.99,,,-99.99,,2013-05-16 11:57:00,
2013-05-16 07:06:00,60.0,44.0,-100.00,NNW,345,4.0,9.0,54,-99.99,,,-99.99,,2013-05-16 12:06:00,
2013-05-16 07:13:00,60.0,44.0,-100.00,NNW,345,4.0,9.0,54,-99.99,,,-99.99,,2013-05-16 12:13:00,
2013-05-16 07:23:00,60.0,44.0,-100.00,NNW,345,4.0,9.0,54,-99.99,,,-99.99,,2013-05-16 12:23:00,
2013-05-16 07:24:00,65.0,46.0,-100.00,NNW,330,4.0,8.0,49,-99.99,,,-99.99,,2013-05-16 12:24:00,
2013-05-16 07:45:00,65.0,46.0,-100.00,NNW,330,4.0,8.0,49,-99.99,,,-99.99,,2013-05-16 12:45:00,
2013-05-16 07:53:00,65.0,46.0,-100.00,NNW,330,4.0,8.0,49,-99.99,,,-99.99,,2013-05-16 12:53:00,
2013-05-16 08:12:00,65.0,46.0,-100.00,NNW,330,4.0,8.0,49,-99.99,,,-99.99,,2013-05-16 13:12:00,
2013-05-16 08:44:00,70.0,47.0,-100.00,NNW,330,4.0,7.0,44,-99.99,,,-99.99,,2013-05-16 13:44:00,
2013-05-16 08:55:00,70.0,47.0,-100.00,NNW,330,4.0,7.0,44,-99.99,,,-99.99,,2013-05-16 13:55:00,
2013-05-16 09:05:00,70.0,47.0,-100.00,NNW,330,4.0,7.0,44,-99.99,,,-99.99,,2013-05-16 14:05:00,
2013-05-16 09:16:00,70.0,47.0,-100.00,NNW,330,4.0,7.0,44,-99.99,,,-99.99,,2013-05-16 14:16:00,
2013-05-16 09:23:00,70.0,47.0,-100.00,NNW,330,4.0,7.0,44,-99.99,,,-99.99,,2013-05-16 14:23:00,
2013-05-16 09:24:00,75.0,48.0,-100.00,NNW,340,3.0,7.0,38,-99.99,,,-99.99,,2013-05-16 14:24:00,
2013-05-16 09:47:00,75.0,48.0,-100.00,NNW,340,3.0,7.0,38,-99.99,,,-99.99,,2013-05-16 14:47:00,
2013-05-16 09:56:00,75.0,48.0,-100.00,NNW,340,3.0,7.0,38,-99.99,,,-99.99,,2013-05-16 14:56:00,
2013-05-16 10:08:00,75.0,48.0,-100.00,NNW,340,3.0,7.0,38,-99.99,,,-99.99,,2013-05-16 15:08:00,
2013-05-16 10:17:00,75.0,48.0,-100.00,NNW,340,3.0,7.0,38,-99.99,,,-99.99,,2013-05-16 15:17:00,
2013-05-16 10:23:00,79.0,48.0,-100.00,NNW,345,1.0,6.0,34,-99.99,,,-99.99,,2013-05-16 15:23:00,
2013-05-16 10:50:00,79.0,48.0,-100.00,NNW,345,1.0,6.0,34,-99.99,,,-99.99,,2013-05-16 15:50:00,
2013-05-16 11:00:00,79.0,48.0,-100.00,NNW,345,1.0,6.0,34,-99.99,,,-99.99,,2013-05-16 16:00:00,
2013-05-16 11:09:00,79.0,48.0,-100.00,NNW,345,1.0,6.0,34,-99.99,,,-99.99,,2013-05-16 16:09:00,
2013-05-16 11:19:00,79.0,48.0,-100.00,NNW,345,1.0,6.0,34,-99.99,,,-99.99,,2013-05-16 16:19:00,
2013-05-16 11:25:00,80.0,48.0,-100.00,NW,325,2.0,5.0,32,-99.99,,,-99.99,,2013-05-16 16:25:00,
2013-05-16 12:01:00,80.0,48.0,-100.00,NW,325,2.0,5.0,32,-99.99,,,-99.99,,2013-05-16 17:01:00,
2013-05-16 12:10:00,80.0,48.0,-100.00,NW,325,2.0,5.0,32,-99.99,,,-99.99,,2013-05-16 17:10:00,
2013-05-16 12:20:00,80.0,48.0,-100.00,NW,325,2.0,5.0,32,-99.99,,,-99.99,,2013-05-16 17:20:00,
2013-05-16 12:24:00,-999.0,-99.9,-100.00,SW,215,4.0,7.0,27,-99.99,,,-99.99,,2013-05-16 17:24:00,
2013-05-16 12:50:00,-999.0,-99.9,-100.00,SW,215,4.0,7.0,27,-99.99,,,-99.99,,2013-05-16 17:50:00,
2013-05-16 13:00:00,-999.0,-99.9,-100.00,SW,215,4.0,7.0,27,-99.99,,,-99.99,,2013-05-16 18:00:00,
2013-05-16 13:10:00,80.0,43.0,-100.00,SW,215,4.0,7.0,27,-99.99,,,-99.99,,2013-05-16 18:10:00,
2013-05-16 13:20:00,80.0,43.0,-100.00,SW,215,4.0,7.0,27,-99.99,,,-99.99,,2013-05-16 18:20:00,
2013-05-16 19:21:00,79.0,44.0,-100.00,SSE,160,2.0,4.0,29,-99.99,,,-99.99,,2013-05-17 00:21:00,
2013-05-16 19:44:00,79.0,44.0,-100.00,SSE,160,2.0,4.0,29,-99.99,,,-99.99,,2013-05-17 00:44:00,
2013-05-16 19:53:00,79.0,44.0,-100.00,SSE,160,2.0,4.0,29,-99.99,,,-99.99,,2013-05-17 00:53:00,
2013-05-16 20:03:00,79.0,44.0,-100.00,SSE,160,2.0,4.0,29,-99.99,,,-99.99,,2013-05-17 01:03:00,
2013-05-16 20:12:00,79.0,44.0,-100.00,SSE,160,2.0,4.0,29,-99.99,,,-99.99,,2013-05-17 01:12:00,
2013-05-16 20:21:00,69.0,44.0,-100.00,East,85,9.0,17.0,41,-99.99,,,-99.99,,2013-05-17 01:21:00,
2013-05-16 20:44:00,69.0,44.0,-100.00,East,85,9.0,17.0,41,-99.99,,,-99.99,,2013-05-17 01:44:00,
2013-05-16 20:52:00,69.0,44.0,-100.00,East,85,9.0,17.0,41,-99.99,,,-99.99,,2013-05-17 01:52:00,
2013-05-16 21:02:00,69.0,44.0,-100.00,East,85,9.0,17.0,41,-99.99,,,-99.99,,2013-05-17 02:02:00,
2013-05-16 21:11:00,69.0,44.0,-100.00,East,85,9.0,17.0,41,-99.99,,,-99.99,,2013-05-17 02:11:00,
2013-05-16 21:22:00,65.0,41.0,-100.00,East,95,6.0,11.0,41,-99.99,,,-99.99,,2013-05-17 02:22:00,
2013-05-16 21:42:00,65.0,41.0,-100.00,East,95,6.0,11.0,41,-99.99,,,-99.99,,2013-05-17 02:42:00,
2013-05-16 21:53:00,65.0,41.0,-100.00,East,95,6.0,11.0,41,-99.99,,,-99.99,,2013-05-17 02:53:00,
2013-05-16 22:02:00,65.0,41.0,-100.00,East,95,6.0,11.0,41,-99.99,,,-99.99,,2013-05-17 03:02:00,
2013-05-16 22:11:00,65.0,41.0,-100.00,East,95,6.0,11.0,41,-99.99,,,-99.99,,2013-05-17 03:11:00,
2013-05-16 22:23:00,62.0,39.0,-100.00,East,100,7.0,13.0,42,-99.99,,,-99.99,,2013-05-17 03:23:00,
2013-05-16 22:43:00,62.0,39.0,-100.00,East,100,7.0,13.0,42,-99.99,,,-99.99,,2013-05-17 03:43:00,
2013-05-16 22:53:00,62.0,39.0,-100.00,East,100,7.0,13.0,42,-99.99,,,-99.99,,2013-05-17 03:53:00,
2013-05-16 23:02:00,62.0,39.0,-100.00,East,100,7.0,13.0,42,-99.99,,,-99.99,,2013-05-17 04:02:00,
2013-05-16 23:13:00,62.0,39.0,-100.00,East,100,7.0,13.0,42,-99.99,,,-99.99,,2013-05-17 04:13:00,
2013-05-16 23:22:00,60.0,38.0,-100.00,East,95,6.0,11.0,44,-99.99,,,-99.99,,2013-05-17 04:22:00,
2013-05-16 23:43:00,60.0,38.0,-100.00,East,95,6.0,11.0,44,-99.99,,,-99.99,,2013-05-17 04:43:00,
2013-05-16 23:53:00,60.0,38.0,-100.00,East,95,6.0,11.0,44,-99.99,,,-99.99,,2013-05-17 04:53:00,